Time;durP1;ratioP1;P1;durP2;ratioP2;P2;SDS_P1;SDS_P2;PMS_P1;PMS_P2;Temp;Humidity;BMP_temperature;BMP_pressure;BME280_temperature;BME280_humidity;BME280_pressure;Samples;Min_cycle;Max_cycle;Signal;HPM_P1;HPM_P2
2024/01/25 00:02:17;;;;;;;16.10;4.90;;;9.80;99.90;;;;;;4993634;28;20171;-71
2024/01/25 00:04:43;;;;;;;13.73;4.20;;;9.80;99.90;;;;;;4992544;28;20258;-71
2024/01/25 00:07:09;;;;;;;18.47;4.50;;;9.80;99.90;;;;;;5001580;28;20220;-71
2024/01/25 00:09:35;;;;;;;10.33;3.57;;;9.80;99.90;;;;;;4995136;28;20685;-71
2024/01/25 00:12:00;;;;;;;12.73;3.53;;;9.80;99.90;;;;;;4992075;28;20431;-71
2024/01/25 00:14:26;;;;;;;20.60;3.90;;;9.90;99.90;;;;;;5006197;28;20182;-71
2024/01/25 00:16:51;;;;;;;15.47;4.10;;;9.80;99.90;;;;;;4999433;28;20191;-71
2024/01/25 00:19:17;;;;;;;11.13;5.27;;;9.90;99.90;;;;;;4999918;28;20178;-70
2024/01/25 00:21:43;;;;;;;19.00;4.90;;;9.90;99.90;;;;;;5001222;28;20194;-71
2024/01/25 00:24:11;;;;;;;17.07;4.40;;;9.90;99.90;;;;;;4998938;28;20581;-71
2024/01/25 00:26:37;;;;;;;11.70;4.27;;;9.90;99.90;;;;;;4995995;28;21043;-70
2024/01/25 00:29:02;;;;;;;16.80;4.77;;;9.90;99.90;;;;;;5011668;28;20466;-70
2024/01/25 00:31:28;;;;;;;25.07;5.23;;;9.90;99.90;;;;;;5001158;28;20201;-71
2024/01/25 00:33:54;;;;;;;14.70;3.97;;;10.00;99.90;;;;;;4999204;28;20180;-71
2024/01/25 00:36:20;;;;;;;10.03;3.40;;;10.00;99.90;;;;;;5001852;28;20206;-71
2024/01/25 00:38:46;;;;;;;12.33;3.97;;;10.00;99.90;;;;;;5006666;28;20230;-71
2024/01/25 00:41:18;;;;;;;11.90;4.30;;;10.00;99.90;;;;;;4995968;28;20529;-70
2024/01/25 00:43:44;;;;;;;17.00;4.30;;;9.90;99.90;;;;;;4995572;28;20442;-71
2024/01/25 00:46:10;;;;;;;12.60;4.20;;;9.90;99.90;;;;;;5000709;28;20486;-71
2024/01/25 00:48:36;;;;;;;11.60;3.90;;;9.90;99.90;;;;;;5000246;28;20646;-71
2024/01/25 00:51:06;;;;;;;9.80;3.10;;;9.90;99.90;;;;;;5001377;28;20206;-70
2024/01/25 00:53:32;;;;;;;20.27;3.97;;;9.90;99.90;;;;;;5011996;28;20535;-70
2024/01/25 00:55:58;;;;;;;11.50;3.63;;;9.90;99.90;;;;;;5007850;28;20445;-71
2024/01/25 00:58:24;;;;;;;12.83;3.40;;;9.90;99.90;;;;;;5006275;28;20524;-71
2024/01/25 01:00:50;;;;;;;14.10;4.73;;;9.90;99.90;;;;;;4995401;28;20237;-71
2024/01/25 01:03:20;;;;;;;15.40;4.73;;;9.90;99.90;;;;;;4999339;28;20189;-71
2024/01/25 01:05:46;;;;;;;18.60;4.13;;;10.00;99.90;;;;;;5006563;28;20560;-71
2024/01/25 01:08:12;;;;;;;13.60;3.57;;;10.00;99.90;;;;;;4999289;28;20430;-71
2024/01/25 01:10:37;;;;;;;15.90;4.47;;;10.00;99.90;;;;;;5000237;28;20230;-71
2024/01/25 01:13:03;;;;;;;19.90;4.30;;;10.00;99.90;;;;;;5003836;28;20437;-71
2024/01/25 01:15:29;;;;;;;17.27;3.83;;;10.00;99.90;;;;;;5004846;28;20267;-70
2024/01/25 01:17:54;;;;;;;11.20;3.57;;;10.00;99.90;;;;;;5001664;28;20188;-70
2024/01/25 01:20:20;;;;;;;10.10;3.03;;;10.00;99.90;;;;;;4997790;28;20329;-70
2024/01/25 01:22:45;;;;;;;15.97;4.77;;;10.00;99.90;;;;;;5010610;28;20187;-70
2024/01/25 01:25:11;;;;;;;13.10;3.37;;;10.00;99.90;;;;;;4997659;28;20203;-70
2024/01/25 01:27:36;;;;;;;17.20;5.73;;;10.00;99.90;;;;;;4994267;28;20175;-70
2024/01/25 01:30:03;;;;;;;10.87;3.67;;;10.00;99.90;;;;;;5005370;28;20199;-71
2024/01/25 01:32:28;;;;;;;15.80;4.10;;;10.00;99.90;;;;;;5001121;28;20754;-70
2024/01/25 01:34:54;;;;;;;16.80;6.77;;;10.00;99.90;;;;;;5006020;28;20449;-71
2024/01/25 01:37:19;;;;;;;16.40;4.13;;;10.00;99.90;;;;;;4997632;28;20184;-71
2024/01/25 01:39:45;;;;;;;18.43;7.57;;;10.00;99.90;;;;;;4994326;28;20278;-70
2024/01/25 01:42:10;;;;;;;9.90;3.83;;;10.00;99.90;;;;;;5002541;28;20184;-70
2024/01/25 01:44:36;;;;;;;14.50;4.50;;;10.00;99.90;;;;;;4998609;28;20183;-70
2024/01/25 01:47:01;;;;;;;21.03;4.10;;;10.00;99.90;;;;;;4999703;28;20210;-70
2024/01/25 01:49:27;;;;;;;17.93;4.47;;;10.00;99.90;;;;;;5014435;28;20711;-70
2024/01/25 01:51:53;;;;;;;12.27;4.67;;;9.90;99.90;;;;;;4997503;28;20200;-71
2024/01/25 01:54:19;;;;;;;12.67;3.20;;;10.00;99.90;;;;;;4989607;28;20175;-70
2024/01/25 01:56:45;;;;;;;15.50;3.70;;;10.00;99.90;;;;;;5006518;28;20198;-70
2024/01/25 01:59:11;;;;;;;11.63;4.70;;;10.00;99.90;;;;;;4997148;28;20476;-71
2024/01/25 02:01:37;;;;;;;12.67;4.23;;;9.90;99.90;;;;;;5001128;28;20441;-70
2024/01/25 02:04:04;;;;;;;11.83;4.37;;;10.00;99.90;;;;;;5006969;28;20437;-70
2024/01/25 02:06:30;;;;;;;7.20;3.40;;;9.90;99.90;;;;;;5010751;28;20492;-70
2024/01/25 02:08:58;;;;;;;13.73;3.90;;;9.90;99.90;;;;;;4994725;28;20427;-70
2024/01/25 02:11:24;;;;;;;11.10;3.77;;;9.90;99.90;;;;;;4994299;28;20187;-71
2024/01/25 02:13:50;;;;;;;12.10;4.10;;;9.90;99.90;;;;;;4999378;28;20813;-71
2024/01/25 02:16:15;;;;;;;8.67;2.90;;;9.80;99.90;;;;;;5002986;28;20431;-71
2024/01/25 02:18:42;;;;;;;12.13;4.83;;;9.90;99.90;;;;;;5001640;28;20632;-71
2024/01/25 02:21:07;;;;;;;20.80;5.53;;;9.90;99.90;;;;;;4996945;28;20203;-71
2024/01/25 02:23:33;;;;;;;15.50;4.60;;;9.90;99.90;;;;;;5002808;28;20444;-71
2024/01/25 02:25:59;;;;;;;17.63;3.57;;;9.80;99.90;;;;;;5002883;28;20733;-70
2024/01/25 02:28:24;;;;;;;16.33;4.10;;;9.80;99.90;;;;;;5005255;28;20183;-70
2024/01/25 02:30:50;;;;;;;14.63;3.70;;;9.80;99.90;;;;;;4995982;28;20203;-71
2024/01/25 02:33:15;;;;;;;10.70;4.30;;;9.80;99.90;;;;;;4994838;28;20183;-71
2024/01/25 02:35:41;;;;;;;25.87;5.33;;;9.80;99.90;;;;;;4998971;28;20258;-70
2024/01/25 02:38:07;;;;;;;13.50;4.23;;;9.80;99.90;;;;;;4999214;28;20183;-71
2024/01/25 02:40:32;;;;;;;10.50;3.60;;;9.80;99.90;;;;;;4999196;28;20744;-71
2024/01/25 02:42:58;;;;;;;11.40;4.47;;;9.70;99.90;;;;;;4997377;28;20215;-71
2024/01/25 02:45:23;;;;;;;14.03;4.80;;;9.70;99.90;;;;;;5002385;28;21706;-71
2024/01/25 02:47:50;;;;;;;16.33;4.30;;;9.70;99.90;;;;;;4994949;28;20215;-71
2024/01/25 02:50:15;;;;;;;13.03;3.60;;;9.80;99.90;;;;;;5010651;28;20190;-71
2024/01/25 02:52:41;;;;;;;16.40;3.60;;;9.70;99.90;;;;;;4993193;28;20431;-70
2024/01/25 02:55:07;;;;;;;12.70;3.80;;;9.80;99.90;;;;;;5006439;28;20229;-70
2024/01/25 02:57:33;;;;;;;12.90;4.00;;;9.80;99.90;;;;;;5001342;28;20434;-71
2024/01/25 02:59:58;;;;;;;12.87;3.87;;;9.70;99.90;;;;;;4999167;28;20207;-71
2024/01/25 03:02:24;;;;;;;13.57;3.30;;;9.70;99.90;;;;;;4993376;28;20258;-70
2024/01/25 03:04:50;;;;;;;11.00;3.20;;;9.70;99.90;;;;;;5002082;28;20233;-70
2024/01/25 03:07:15;;;;;;;16.53;4.10;;;9.70;99.90;;;;;;4996926;28;20207;-70
2024/01/25 03:09:41;;;;;;;18.87;4.30;;;9.70;99.90;;;;;;4998636;28;20205;-71
2024/01/25 03:12:06;;;;;;;14.53;4.13;;;9.60;99.90;;;;;;5007870;28;20206;-71
2024/01/25 03:14:32;;;;;;;10.67;4.20;;;9.60;99.90;;;;;;5005293;28;20258;-70
2024/01/25 03:16:57;;;;;;;13.10;4.93;;;9.60;99.90;;;;;;5010515;28;20175;-71
2024/01/25 03:19:27;;;;;;;10.93;3.50;;;9.60;99.90;;;;;;4993825;28;20179;-71
2024/01/25 03:21:54;;;;;;;16.43;4.27;;;9.60;99.90;;;;;;4993072;28;20226;-71
2024/01/25 03:24:20;;;;;;;14.33;5.90;;;9.60;99.90;;;;;;4997600;28;20791;-71
2024/01/25 03:26:45;;;;;;;8.60;3.40;;;9.60;99.90;;;;;;5001814;28;20467;-71
2024/01/25 03:29:11;;;;;;;10.40;3.03;;;9.60;99.90;;;;;;5008946;28;20202;-71
2024/01/25 03:31:37;;;;;;;9.37;3.70;;;9.60;99.90;;;;;;4995978;28;20277;-71
2024/01/25 03:34:03;;;;;;;18.50;3.60;;;9.60;99.90;;;;;;4993566;28;20273;-71
2024/01/25 03:36:28;;;;;;;13.90;3.73;;;9.60;99.90;;;;;;4994681;28;20442;-70
2024/01/25 03:38:54;;;;;;;15.07;3.87;;;9.50;99.90;;;;;;5008363;28;20187;-71
2024/01/25 03:41:20;;;;;;;12.53;5.00;;;9.60;99.90;;;;;;4991998;28;20229;-71
2024/01/25 03:43:45;;;;;;;12.50;3.30;;;9.60;99.90;;;;;;4998805;28;20238;-71
2024/01/25 03:46:14;;;;;;;10.10;4.10;;;9.60;99.90;;;;;;5001423;28;20820;-71
2024/01/25 03:48:39;;;;;;;14.83;4.60;;;9.60;99.90;;;;;;4992588;28;20175;-71
2024/01/25 03:51:05;;;;;;;16.40;3.73;;;9.50;99.90;;;;;;4992918;28;20445;-71
2024/01/25 03:53:30;;;;;;;13.07;4.50;;;9.50;99.90;;;;;;4994163;28;20244;-71
2024/01/25 03:55:56;;;;;;;12.90;4.23;;;9.50;99.90;;;;;;5009004;28;20185;-71
2024/01/25 03:58:21;;;;;;;14.47;3.97;;;9.50;99.90;;;;;;5003819;28;20194;-70
2024/01/25 04:00:47;;;;;;;20.17;5.30;;;9.50;99.90;;;;;;5000298;28;20223;-71
2024/01/25 04:03:13;;;;;;;12.27;4.07;;;9.50;99.90;;;;;;4993917;28;20245;-71
2024/01/25 04:05:41;;;;;;;12.40;3.47;;;9.50;99.90;;;;;;4999243;28;20198;-71
2024/01/25 04:08:07;;;;;;;14.10;4.30;;;9.40;99.90;;;;;;5002822;28;20175;-71
2024/01/25 04:10:33;;;;;;;14.03;3.77;;;9.40;99.90;;;;;;5001138;28;20442;-71
2024/01/25 04:13:00;;;;;;;11.00;3.70;;;9.40;99.90;;;;;;5000013;28;20188;-70
2024/01/25 04:15:26;;;;;;;14.50;4.10;;;9.40;99.90;;;;;;5004596;28;20270;-71
2024/01/25 04:17:53;;;;;;;8.07;3.10;;;9.40;99.90;;;;;;4991588;28;20847;-71
2024/01/25 04:20:18;;;;;;;11.67;4.00;;;9.40;99.90;;;;;;4992411;28;20203;-71
2024/01/25 04:22:44;;;;;;;11.53;3.77;;;9.50;99.90;;;;;;4991740;28;20492;-70
2024/01/25 04:25:10;;;;;;;10.40;3.50;;;9.40;99.90;;;;;;5010500;28;20186;-71
2024/01/25 04:27:38;;;;;;;11.20;3.93;;;9.40;99.90;;;;;;4999345;28;20831;-71
2024/01/25 04:30:04;;;;;;;13.03;4.90;;;9.30;99.90;;;;;;4997686;28;20449;-71
2024/01/25 04:32:30;;;;;;;12.63;3.33;;;9.40;99.90;;;;;;4999912;28;20908;-71
2024/01/25 04:34:55;;;;;;;11.70;3.90;;;9.40;99.90;;;;;;4994023;28;20430;-71
2024/01/25 04:37:21;;;;;;;10.57;2.90;;;9.40;99.90;;;;;;4992783;28;20184;-71
2024/01/25 04:39:46;;;;;;;12.47;4.43;;;9.40;99.90;;;;;;4992621;28;20192;-71
2024/01/25 04:42:12;;;;;;;14.70;3.93;;;9.30;99.90;;;;;;4997550;28;20258;-71
2024/01/25 04:44:37;;;;;;;15.50;4.97;;;9.40;99.90;;;;;;5002360;28;20182;-71
2024/01/25 04:47:03;;;;;;;14.10;5.63;;;9.40;99.90;;;;;;4999554;28;20207;-71
2024/01/25 04:49:28;;;;;;;10.50;4.70;;;9.40;99.90;;;;;;4991965;28;20196;-71
2024/01/25 04:51:54;;;;;;;17.13;3.70;;;9.40;99.90;;;;;;4992285;28;20175;-71
2024/01/25 04:54:19;;;;;;;11.87;3.30;;;9.40;99.90;;;;;;4999266;28;20179;-71
2024/01/25 04:56:45;;;;;;;16.53;3.93;;;9.30;99.90;;;;;;5005397;28;20197;-71
2024/01/25 04:59:10;;;;;;;18.70;5.20;;;9.30;99.90;;;;;;4997723;28;20199;-71
2024/01/25 05:01:36;;;;;;;11.53;4.60;;;9.20;99.90;;;;;;4998634;28;20179;-71
2024/01/25 05:04:01;;;;;;;16.10;5.60;;;9.10;99.90;;;;;;4995375;28;20574;-71
2024/01/25 05:06:27;;;;;;;18.73;4.60;;;9.20;99.90;;;;;;4995531;28;20234;-71
2024/01/25 05:08:53;;;;;;;9.87;4.23;;;9.10;99.90;;;;;;4996573;28;20180;-70
2024/01/25 05:11:18;;;;;;;10.40;3.00;;;9.10;99.90;;;;;;5002305;28;20198;-71
2024/01/25 05:13:44;;;;;;;22.37;5.10;;;9.10;99.90;;;;;;5003268;28;20472;-70
2024/01/25 05:16:09;;;;;;;13.40;3.93;;;9.10;99.90;;;;;;5004619;28;20297;-70
2024/01/25 05:18:35;;;;;;;10.07;3.90;;;9.10;99.90;;;;;;4995280;28;20175;-71
2024/01/25 05:21:00;;;;;;;15.27;3.63;;;9.00;99.90;;;;;;4993948;28;20196;-71
2024/01/25 05:23:26;;;;;;;15.53;5.73;;;8.90;99.90;;;;;;4998763;28;20198;-70
2024/01/25 05:25:53;;;;;;;13.37;4.70;;;8.80;99.90;;;;;;4999939;28;20624;-71
2024/01/25 05:28:18;;;;;;;21.30;4.23;;;8.80;99.90;;;;;;5005588;28;20580;-71
2024/01/25 05:30:44;;;;;;;14.73;4.20;;;8.70;99.90;;;;;;4991642;28;20463;-70
2024/01/25 05:33:09;;;;;;;12.30;4.77;;;8.60;99.90;;;;;;5003052;28;20191;-71
2024/01/25 05:35:35;;;;;;;19.03;5.37;;;8.50;99.90;;;;;;5002945;28;20179;-70
2024/01/25 05:38:01;;;;;;;20.07;5.97;;;8.50;99.90;;;;;;4997326;28;20649;-71
2024/01/25 05:40:26;;;;;;;13.50;4.27;;;8.40;99.90;;;;;;5006622;28;20198;-70
2024/01/25 05:42:52;;;;;;;18.90;7.23;;;8.40;99.90;;;;;;4999419;28;20657;-70
2024/01/25 05:45:20;;;;;;;23.10;5.83;;;8.40;99.90;;;;;;4993735;28;20555;-71
2024/01/25 05:47:45;;;;;;;15.03;4.80;;;8.30;99.90;;;;;;4997203;28;20246;-70
2024/01/25 05:50:11;;;;;;;15.03;5.63;;;8.20;99.90;;;;;;5010803;28;20455;-70
2024/01/25 05:52:37;;;;;;;18.50;4.60;;;8.20;99.90;;;;;;4997590;28;20187;-70
2024/01/25 05:55:04;;;;;;;16.73;4.80;;;8.10;99.90;;;;;;4995646;28;20188;-71
2024/01/25 05:57:29;;;;;;;15.90;4.50;;;8.10;99.90;;;;;;5001012;28;20199;-70
2024/01/25 05:59:55;;;;;;;25.33;5.03;;;8.10;99.90;;;;;;5003184;28;20473;-70
2024/01/25 06:02:20;;;;;;;16.60;4.63;;;8.00;99.90;;;;;;5001041;28;20199;-70
2024/01/25 06:04:46;;;;;;;13.20;4.37;;;8.00;99.90;;;;;;5008833;28;20187;-70
2024/01/25 06:07:11;;;;;;;15.70;4.50;;;8.00;99.90;;;;;;5013993;28;20608;-70
2024/01/25 06:09:37;;;;;;;12.63;5.20;;;7.90;99.90;;;;;;4994583;28;20196;-70
2024/01/25 06:12:04;;;;;;;13.63;5.53;;;7.80;99.90;;;;;;5009690;28;20179;-71
2024/01/25 06:14:30;;;;;;;21.47;5.50;;;7.80;99.90;;;;;;5006617;28;20179;-71
2024/01/25 06:16:56;;;;;;;21.30;5.10;;;7.80;99.90;;;;;;5013945;28;20430;-70
2024/01/25 06:19:21;;;;;;;13.17;5.33;;;7.80;99.90;;;;;;5007093;28;20178;-70
2024/01/25 06:21:47;;;;;;;21.03;5.17;;;7.70;99.90;;;;;;4994585;28;20638;-70
2024/01/25 06:24:12;;;;;;;12.27;4.80;;;7.70;99.90;;;;;;4993822;28;20176;-70
2024/01/25 06:26:38;;;;;;;14.50;4.23;;;7.60;99.90;;;;;;4993902;28;20227;-70
2024/01/25 06:29:04;;;;;;;17.17;5.67;;;7.60;99.90;;;;;;4994607;28;20176;-70
2024/01/25 06:31:29;;;;;;;20.00;8.13;;;7.60;99.90;;;;;;4993909;28;20447;-70
2024/01/25 06:33:55;;;;;;;12.43;4.37;;;7.50;99.90;;;;;;4994465;28;20171;-70
2024/01/25 06:36:20;;;;;;;15.47;4.50;;;7.50;99.90;;;;;;4994315;28;20659;-70
2024/01/25 06:38:46;;;;;;;14.57;5.13;;;7.50;99.90;;;;;;4994374;28;20191;-70
2024/01/25 06:41:11;;;;;;;11.43;4.83;;;7.50;99.90;;;;;;4994009;28;20669;-70
2024/01/25 06:43:37;;;;;;;19.00;4.90;;;7.50;99.90;;;;;;5009287;28;20233;-70
2024/01/25 06:46:02;;;;;;;22.30;5.77;;;7.50;99.90;;;;;;5013702;28;20202;-70
2024/01/25 06:48:28;;;;;;;14.83;4.03;;;7.40;99.90;;;;;;5013499;28;20173;-70
2024/01/25 06:50:54;;;;;;;16.90;5.73;;;7.30;99.90;;;;;;4998616;28;20227;-70
2024/01/25 06:53:20;;;;;;;13.63;4.47;;;7.30;99.90;;;;;;4994092;28;20180;-70
2024/01/25 06:55:46;;;;;;;17.77;5.00;;;7.30;99.90;;;;;;4993710;28;20186;-70
2024/01/25 06:58:11;;;;;;;18.57;5.10;;;7.30;99.90;;;;;;4993490;28;20423;-70
2024/01/25 07:00:38;;;;;;;18.00;6.47;;;7.20;99.90;;;;;;4993801;28;20207;-70
2024/01/25 07:03:04;;;;;;;15.67;5.53;;;7.20;99.90;;;;;;4993875;28;20171;-70
2024/01/25 07:05:33;;;;;;;19.90;4.87;;;7.20;99.90;;;;;;4993716;28;20494;-70
2024/01/25 07:07:58;;;;;;;13.77;4.30;;;7.30;99.90;;;;;;4993336;28;20423;-70
2024/01/25 07:10:24;;;;;;;17.30;6.47;;;7.30;99.90;;;;;;4993107;28;20573;-70
2024/01/25 07:12:50;;;;;;;19.67;4.60;;;7.30;99.90;;;;;;4993478;28;20175;-70
2024/01/25 07:15:16;;;;;;;24.10;6.63;;;7.30;99.90;;;;;;4993625;28;20164;-70
2024/01/25 07:17:42;;;;;;;22.67;7.10;;;7.40;99.90;;;;;;4993413;28;20175;-70
2024/01/25 07:20:08;;;;;;;12.90;5.03;;;7.40;99.90;;;;;;4993421;28;20442;-70
2024/01/25 07:22:34;;;;;;;12.93;4.67;;;7.40;99.90;;;;;;4993570;28;20167;-70
2024/01/25 07:24:59;;;;;;;18.47;5.63;;;7.40;99.90;;;;;;4993145;28;20521;-70
2024/01/25 07:27:25;;;;;;;14.20;5.60;;;7.40;99.90;;;;;;4993139;28;20211;-70
2024/01/25 07:29:50;;;;;;;18.97;4.50;;;7.50;99.90;;;;;;4993153;28;20258;-70
2024/01/25 07:32:17;;;;;;;13.93;4.83;;;7.50;99.90;;;;;;4994702;28;20537;-70
2024/01/25 07:34:42;;;;;;;13.07;4.97;;;7.50;99.90;;;;;;4998022;28;20238;-70
2024/01/25 07:37:08;;;;;;;20.80;6.20;;;7.60;99.90;;;;;;4993182;28;20415;-71
2024/01/25 07:39:33;;;;;;;19.30;5.23;;;7.50;99.90;;;;;;4992978;28;20196;-70
2024/01/25 07:41:59;;;;;;;17.60;5.03;;;7.60;99.90;;;;;;4992944;28;20195;-71
2024/01/25 07:44:24;;;;;;;22.53;4.83;;;7.80;99.90;;;;;;4993214;28;20664;-71
2024/01/25 07:46:50;;;;;;;15.53;3.73;;;8.10;99.90;;;;;;4992984;28;20207;-71
2024/01/25 07:49:15;;;;;;;29.37;5.70;;;8.30;99.90;;;;;;4993046;28;20202;-71
2024/01/25 07:51:41;;;;;;;14.57;4.60;;;8.60;99.90;;;;;;4992836;28;20183;-71
2024/01/25 07:54:06;;;;;;;18.40;5.83;;;9.00;99.90;;;;;;4992931;28;20176;-71
2024/01/25 07:56:32;;;;;;;19.90;6.33;;;9.50;99.90;;;;;;4992659;28;20684;-71
2024/01/25 07:58:59;;;;;;;14.30;4.37;;;10.00;99.90;;;;;;4993443;28;20172;-71
2024/01/25 08:01:25;;;;;;;16.53;5.67;;;10.80;99.90;;;;;;4992650;28;20206;-71
2024/01/25 08:03:50;;;;;;;11.07;6.03;;;11.50;99.90;;;;;;4992867;28;20445;-70
2024/01/25 08:06:16;;;;;;;34.10;17.50;;;12.00;99.90;;;;;;5006343;28;20200;-71
2024/01/25 08:08:41;;;;;;;17.47;7.50;;;12.40;99.90;;;;;;5012183;28;20183;-71
2024/01/25 08:11:08;;;;;;;23.40;6.20;;;12.30;99.90;;;;;;4995475;28;20227;-71
2024/01/25 08:13:33;;;;;;;14.73;5.40;;;12.40;99.90;;;;;;4992778;28;20255;-71
2024/01/25 08:15:59;;;;;;;18.73;4.90;;;12.80;99.90;;;;;;5002544;28;20430;-71
2024/01/25 08:18:27;;;;;;;14.37;5.40;;;12.90;99.90;;;;;;5012059;28;20171;-71
2024/01/25 08:20:52;;;;;;;16.83;4.70;;;13.50;99.90;;;;;;5005824;28;20311;-72
2024/01/25 08:23:18;;;;;;;16.57;6.83;;;14.10;99.90;;;;;;4992198;28;20427;-72
2024/01/25 08:25:44;;;;;;;9.90;5.70;;;14.80;99.90;;;;;;4992283;28;20215;-73
2024/01/25 08:28:10;;;;;;;20.10;5.97;;;15.40;99.90;;;;;;4992490;28;20980;-72
2024/01/25 08:30:35;;;;;;;13.07;5.53;;;15.90;99.90;;;;;;4992892;28;20195;-72
2024/01/25 08:33:01;;;;;;;16.40;5.57;;;16.30;99.90;;;;;;4992248;28;20729;-72
2024/01/25 08:35:26;;;;;;;17.03;4.63;;;16.70;99.90;;;;;;4992550;28;20167;-71
2024/01/25 08:37:52;;;;;;;11.07;4.87;;;16.80;99.90;;;;;;4990891;28;20171;-72
2024/01/25 08:40:17;;;;;;;10.67;5.23;;;17.40;99.90;;;;;;4992148;28;20202;-72
2024/01/25 08:42:43;;;;;;;12.00;4.73;;;18.30;95.90;;;;;;4992294;28;20176;-72
2024/01/25 08:45:09;;;;;;;11.83;4.97;;;18.30;93.20;;;;;;4992420;28;20261;-72
2024/01/25 08:47:37;;;;;;;15.23;4.70;;;18.20;92.50;;;;;;4995804;28;20259;-72
2024/01/25 08:50:06;;;;;;;9.70;4.10;;;18.80;90.70;;;;;;4996238;28;20461;-71
2024/01/25 08:52:32;;;;;;;12.83;4.97;;;18.70;90.40;;;;;;4996157;28;21187;-72
2024/01/25 08:54:57;;;;;;;9.10;4.50;;;19.20;88.00;;;;;;4995797;28;20422;-72
2024/01/25 08:57:23;;;;;;;13.93;6.43;;;20.00;82.90;;;;;;4996054;28;20196;-72
2024/01/25 08:59:48;;;;;;;11.63;4.90;;;21.00;76.40;;;;;;4996043;28;20584;-72
2024/01/25 09:02:14;;;;;;;11.60;4.43;;;21.50;70.40;;;;;;4996123;28;20183;-72
2024/01/25 09:04:42;;;;;;;10.30;4.83;;;20.90;66.20;;;;;;4996057;28;20172;-72
2024/01/25 09:07:08;;;;;;;12.00;4.77;;;21.80;67.10;;;;;;4995426;28;20191;-72
2024/01/25 09:09:34;;;;;;;11.03;4.93;;;22.30;60.90;;;;;;4996087;28;20437;-72
2024/01/25 09:12:00;;;;;;;10.10;4.50;;;22.20;57.10;;;;;;4995831;28;20207;-72
2024/01/25 09:14:25;;;;;;;10.07;5.17;;;21.80;57.30;;;;;;4995960;28;20171;-72
2024/01/25 09:16:51;;;;;;;8.30;3.73;;;21.80;59.90;;;;;;4995423;28;20175;-72
2024/01/25 09:19:16;;;;;;;10.60;4.83;;;21.70;57.30;;;;;;4995719;28;20182;-72
2024/01/25 09:21:42;;;;;;;7.77;4.43;;;21.00;58.20;;;;;;4996129;28;20665;-73
2024/01/25 09:24:07;;;;;;;12.57;4.10;;;21.30;58.70;;;;;;4995836;28;20180;-72
2024/01/25 09:26:33;;;;;;;14.83;3.90;;;20.60;58.30;;;;;;4995379;28;20204;-72
2024/01/25 09:28:59;;;;;;;14.73;5.10;;;21.40;59.00;;;;;;4995858;28;20667;-71
2024/01/25 09:31:24;;;;;;;13.90;5.43;;;22.30;55.80;;;;;;4995324;28;20282;-71
2024/01/25 09:33:50;;;;;;;11.30;4.30;;;22.90;55.20;;;;;;4995773;28;20170;-71
2024/01/25 09:36:16;;;;;;;7.60;3.53;;;23.60;52.10;;;;;;4995440;28;20192;-71
2024/01/25 09:38:42;;;;;;;14.83;4.10;;;24.20;49.20;;;;;;4995276;28;20637;-71
2024/01/25 09:41:08;;;;;;;14.63;5.73;;;24.50;48.10;;;;;;4994619;28;20537;-71
2024/01/25 09:43:34;;;;;;;11.97;4.53;;;23.00;48.40;;;;;;4995135;28;20175;-69
2024/01/25 09:46:00;;;;;;;12.87;3.90;;;20.80;51.60;;;;;;4994713;28;20202;-69
2024/01/25 09:48:26;;;;;;;16.27;4.50;;;19.60;54.60;;;;;;4994557;28;20190;-71
2024/01/25 09:50:55;;;;;;;8.80;4.53;;;19.40;57.50;;;;;;4995352;28;20434;-71
2024/01/25 09:53:22;;;;;;;10.90;5.00;;;19.30;58.70;;;;;;4994855;28;20430;-71
2024/01/25 09:55:57;;;;;;;11.77;4.83;;;20.30;56.70;;;;;;4994996;28;20472;-71
2024/01/25 09:58:25;;;;;;;9.30;4.60;;;20.20;55.50;;;;;;4993434;28;21119;-71
2024/01/25 10:00:51;;;;;;;10.17;5.07;;;19.30;57.90;;;;;;4994999;28;20696;-72
2024/01/25 10:03:16;;;;;;;12.23;4.13;;;19.40;58.00;;;;;;4994556;28;20434;-71
2024/01/25 10:05:42;;;;;;;10.57;4.70;;;18.50;59.10;;;;;;4994941;28;20211;-71
2024/01/25 10:08:13;;;;;;;13.80;4.90;;;17.40;63.70;;;;;;4994049;28;20187;-71
2024/01/25 10:10:38;;;;;;;10.77;3.60;;;15.90;75.00;;;;;;5005632;28;20473;-71
2024/01/25 10:13:05;;;;;;;9.23;3.80;;;15.10;87.70;;;;;;4997168;28;20451;-71
2024/01/25 10:15:30;;;;;;;9.80;4.57;;;14.60;94.20;;;;;;4994924;28;20175;-71
2024/01/25 10:17:56;;;;;;;13.33;4.20;;;14.60;94.70;;;;;;4994659;28;20960;-71
2024/01/25 10:20:24;;;;;;;7.70;3.47;;;14.70;95.00;;;;;;4994787;28;20222;-71
2024/01/25 10:22:49;;;;;;;18.13;4.20;;;14.40;95.80;;;;;;4994617;28;20668;-71
2024/01/25 10:25:15;;;;;;;11.23;5.30;;;14.90;96.00;;;;;;4994562;28;20477;-72
2024/01/25 10:27:42;;;;;;;7.80;4.50;;;16.10;91.20;;;;;;4994343;28;20181;-72
2024/01/25 10:30:09;;;;;;;12.83;4.73;;;16.60;85.90;;;;;;4994145;28;20188;-71
2024/01/25 10:32:35;;;;;;;11.10;3.97;;;16.90;87.50;;;;;;4994566;28;20509;-72
2024/01/25 10:35:02;;;;;;;13.33;4.47;;;19.00;74.20;;;;;;4994557;28;20957;-71
2024/01/25 10:37:29;;;;;;;12.30;4.50;;;20.00;65.60;;;;;;5011533;28;20179;-71
2024/01/25 10:39:55;;;;;;;7.20;3.90;;;21.00;62.20;;;;;;5013883;28;20444;-71
2024/01/25 10:42:21;;;;;;;13.57;4.33;;;22.10;56.20;;;;;;5006222;28;20430;-71
2024/01/25 10:44:47;;;;;;;8.17;3.83;;;23.80;51.20;;;;;;4994439;28;20275;-72
2024/01/25 10:47:13;;;;;;;8.30;4.10;;;23.50;48.90;;;;;;4994610;28;20199;-72
2024/01/25 10:49:39;;;;;;;11.90;3.87;;;23.70;48.40;;;;;;4994678;28;20274;-72
2024/01/25 10:52:06;;;;;;;9.40;4.03;;;23.90;46.70;;;;;;4994092;28;20175;-72
2024/01/25 10:54:32;;;;;;;10.20;4.53;;;24.70;45.60;;;;;;4994276;28;20480;-72
2024/01/25 10:56:58;;;;;;;8.57;3.73;;;25.00;42.20;;;;;;4993971;28;20503;-72
2024/01/25 10:59:25;;;;;;;8.63;4.00;;;24.90;42.70;;;;;;4993980;28;20176;-72
2024/01/25 11:01:51;;;;;;;10.47;4.60;;;25.80;39.90;;;;;;4994372;28;20414;-72
2024/01/25 11:04:17;;;;;;;9.80;4.07;;;25.40;39.30;;;;;;4994151;28;20570;-72
2024/01/25 11:06:47;;;;;;;9.40;3.60;;;26.40;38.30;;;;;;4994346;28;20704;-72
2024/01/25 11:09:21;;;;;;;8.20;4.90;;;27.40;35.80;;;;;;4993613;28;20473;-70
2024/01/25 11:11:49;;;;;;;5.63;3.10;;;28.80;34.30;;;;;;4994560;28;20473;-70
2024/01/25 11:14:16;;;;;;;8.93;3.60;;;28.40;31.30;;;;;;4994786;28;20429;-71
2024/01/25 11:16:44;;;;;;;10.70;4.00;;;26.40;34.10;;;;;;4993397;28;20430;-72
2024/01/25 11:19:20;;;;;;;7.03;4.23;;;25.80;34.90;;;;;;4993576;28;20427;-72
2024/01/25 11:21:52;;;;;;;8.47;3.47;;;24.60;34.60;;;;;;4993586;28;20422;-72
2024/01/25 11:24:23;;;;;;;8.57;3.20;;;24.10;36.60;;;;;;4993473;28;20421;-72
2024/01/25 11:26:49;;;;;;;8.73;3.27;;;23.60;36.80;;;;;;4993077;28;20474;-72
2024/01/25 11:29:16;;;;;;;7.10;3.10;;;23.80;37.20;;;;;;4993108;28;20477;-72
2024/01/25 11:31:45;;;;;;;8.40;4.07;;;22.00;38.50;;;;;;4994336;28;20425;-71
2024/01/25 11:34:13;;;;;;;10.20;5.30;;;21.50;40.20;;;;;;4993435;28;20924;-71
2024/01/25 11:36:38;;;;;;;12.23;3.90;;;22.30;41.00;;;;;;4993013;28;20427;-72
2024/01/25 11:39:06;;;;;;;6.47;3.50;;;24.30;38.50;;;;;;4993081;28;20853;-72
2024/01/25 11:41:31;;;;;;;7.23;3.93;;;25.50;35.30;;;;;;4992738;28;20670;-72
2024/01/25 11:43:57;;;;;;;10.33;3.93;;;23.40;36.50;;;;;;4992966;28;20434;-71
2024/01/25 11:46:23;;;;;;;7.27;3.60;;;22.80;38.50;;;;;;4992661;28;20207;-72
2024/01/25 11:48:49;;;;;;;9.47;3.27;;;24.90;37.10;;;;;;4993094;28;20199;-72
2024/01/25 11:51:15;;;;;;;7.90;3.83;;;25.70;34.60;;;;;;4992839;28;20533;-72
2024/01/25 11:53:41;;;;;;;10.20;4.40;;;24.40;36.70;;;;;;4992615;28;20175;-72
2024/01/25 11:56:10;;;;;;;7.03;3.20;;;24.60;36.20;;;;;;4992698;28;20180;-72
2024/01/25 11:58:37;;;;;;;6.63;2.90;;;25.90;34.10;;;;;;4992723;28;20418;-72
2024/01/25 12:01:05;;;;;;;10.70;3.97;;;27.10;33.20;;;;;;5018997;23;21044;-68
2024/01/25 12:03:32;;;;;;;12.80;4.17;;;27.20;32.80;;;;;;5012740;28;20508;-69
2024/01/25 12:05:59;;;;;;;9.77;3.90;;;27.80;32.30;;;;;;4993055;28;20455;-69
2024/01/25 12:08:24;;;;;;;9.60;4.17;;;29.10;30.70;;;;;;4992939;28;20441;-69
2024/01/25 12:10:50;;;;;;;7.07;3.50;;;28.90;29.10;;;;;;4997803;28;20434;-69
2024/01/25 12:13:16;;;;;;;8.07;3.03;;;28.00;29.30;;;;;;5012554;28;20171;-69
2024/01/25 12:15:42;;;;;;;6.10;3.33;;;28.20;29.00;;;;;;5010917;28;20179;-69
2024/01/25 12:18:08;;;;;;;6.90;2.90;;;29.20;28.70;;;;;;4992483;28;20484;-69
2024/01/25 12:20:35;;;;;;;4.07;2.40;;;29.90;27.80;;;;;;4992439;28;20266;-69
2024/01/25 12:23:01;;;;;;;6.93;3.30;;;30.40;27.00;;;;;;4992893;28;20442;-69
2024/01/25 12:25:27;;;;;;;6.33;3.60;;;30.80;26.10;;;;;;4992964;28;20423;-69
2024/01/25 12:27:53;;;;;;;7.40;3.40;;;31.50;25.90;;;;;;4992600;28;20171;-69
2024/01/25 12:30:19;;;;;;;10.20;2.93;;;31.40;25.30;;;;;;4992968;28;20206;-69
2024/01/25 12:32:47;;;;;;;5.43;3.40;;;31.80;25.00;;;;;;4992607;28;20920;-68
2024/01/25 12:35:13;;;;;;;5.80;3.20;;;30.80;25.20;;;;;;4992556;28;20171;-68
2024/01/25 12:37:38;;;;;;;6.70;2.80;;;29.90;25.70;;;;;;4992497;28;20427;-68